createdAt,value
2023-03-06T00:00:45.785Z,96.86
2023-03-06T00:01:45.765Z,96.27
2023-03-06T00:02:45.740Z,96.17
2023-03-06T00:03:45.753Z,96.33
2023-03-06T00:04:45.747Z,96.37
2023-03-06T00:05:45.746Z,96.17
2023-03-06T00:06:45.700Z,96.55
2023-03-06T00:07:45.685Z,96.02
2023-03-06T00:08:45.699Z,96.17
2023-03-06T00:09:45.670Z,95.92
2023-03-06T00:10:45.672Z,96.59
2023-03-06T00:11:45.634Z,96.17
2023-03-06T00:12:45.636Z,96.17
2023-03-06T00:13:45.643Z,95.86
2023-03-06T00:14:45.627Z,95.75
2023-03-06T00:15:45.602Z,95.75
2023-03-06T00:16:45.624Z,95.86
2023-03-06T00:17:45.568Z,95.54
2023-03-06T00:18:45.565Z,95.75
2023-03-06T00:19:45.567Z,95.43
2023-03-06T00:20:45.543Z,95.96
2023-03-06T00:21:45.555Z,95.86
2023-03-06T00:22:45.524Z,96.17
2023-03-06T00:23:45.523Z,96.06
2023-03-06T00:24:45.495Z,96.27
2023-03-06T00:25:45.502Z,96.37
2023-03-06T00:26:45.478Z,95.33
2023-03-06T00:27:45.469Z,95.86
2023-03-06T00:28:45.452Z,95.86
2023-03-06T00:29:45.456Z,95.75
2023-03-06T00:30:45.436Z,95.54
2023-03-06T00:31:45.507Z,96.06
2023-03-06T00:32:45.423Z,96.00
2023-03-06T00:33:45.398Z,95.75
2023-03-06T00:34:45.401Z,95.96
2023-03-06T00:35:45.407Z,95.75
2023-03-06T00:36:45.356Z,95.86
2023-03-06T00:37:45.342Z,96.06
2023-03-06T00:38:45.337Z,95.86
2023-03-06T00:39:45.350Z,95.43
2023-03-06T00:40:45.312Z,96.06
2023-03-06T00:41:46.989Z,95.68
2023-03-06T00:42:45.298Z,96.06
2023-03-06T00:43:45.275Z,96.31
2023-03-06T00:44:45.286Z,95.96
2023-03-06T00:45:45.305Z,95.75
2023-03-06T00:46:45.266Z,95.75
2023-03-06T00:47:45.227Z,95.86
2023-03-06T00:48:45.239Z,95.75
2023-03-06T00:49:45.261Z,95.86
2023-03-06T00:50:45.220Z,95.64
2023-03-06T00:51:45.197Z,95.33
2023-03-06T00:52:45.188Z,95.86
2023-03-06T00:53:45.166Z,95.86
2023-03-06T00:54:45.187Z,96.06
2023-03-06T00:55:48.476Z,95.86
2023-03-06T00:56:45.134Z,96.17
2023-03-06T00:57:45.136Z,96.27
2023-03-06T00:58:45.113Z,96.37
2023-03-06T00:59:45.120Z,96.17
2023-03-06T01:00:45.150Z,96.17
2023-03-06T01:01:45.089Z,96.06
2023-03-06T01:02:45.066Z,96.27
2023-03-06T01:03:45.060Z,96.48
2023-03-06T01:04:45.060Z,96.37
2023-03-06T01:05:45.055Z,96.33
2023-03-06T01:06:45.022Z,96.59
2023-03-06T01:07:45.015Z,96.48
2023-03-06T01:08:45.000Z,96.59
2023-03-06T01:09:44.991Z,96.33
2023-03-06T01:10:44.994Z,96.55
2023-03-06T01:11:44.953Z,96.12
2023-03-06T01:12:44.959Z,96.33
2023-03-06T01:13:44.953Z,96.33
2023-03-06T01:14:44.926Z,96.33
2023-03-06T01:15:44.921Z,96.12
2023-03-06T01:16:44.922Z,96.02
2023-03-06T01:17:44.903Z,95.92
2023-03-06T01:18:44.885Z,95.92
2023-03-06T01:19:44.868Z,96.12
2023-03-06T01:20:44.879Z,96.02
2023-03-06T01:21:44.863Z,95.92
2023-03-06T01:22:44.859Z,96.06
2023-03-06T01:23:44.821Z,96.02
2023-03-06T01:24:44.818Z,96.33
2023-03-06T01:25:44.815Z,96.23
2023-03-06T01:26:44.790Z,96.02
2023-03-06T01:27:44.812Z,96.44
2023-03-06T01:28:44.767Z,96.23
2023-03-06T01:29:44.774Z,95.70
2023-03-06T01:30:44.771Z,95.70
2023-03-06T01:31:44.839Z,96.02
2023-03-06T01:32:44.743Z,95.92
2023-03-06T01:33:44.718Z,95.81
2023-03-06T01:34:44.697Z,95.92
2023-03-06T01:35:44.740Z,95.96
2023-03-06T01:36:44.718Z,95.92
2023-03-06T01:37:44.658Z,95.96
2023-03-06T01:38:44.678Z,95.81
2023-03-06T01:39:44.658Z,96.02
2023-03-06T01:40:44.633Z,95.96
2023-03-06T01:41:44.621Z,95.81
2023-03-06T01:42:46.415Z,96.12
2023-03-06T01:43:44.616Z,95.86
2023-03-06T01:44:44.591Z,95.96
2023-03-06T01:45:44.670Z,95.96
2023-03-06T01:46:44.602Z,96.11
2023-03-06T01:47:51.759Z,96.06
2023-03-06T01:48:51.669Z,95.86
2023-03-06T01:49:52.183Z,95.86
2023-03-06T01:50:44.549Z,95.90
2023-03-06T01:51:44.538Z,95.90
2023-03-06T01:52:52.161Z,96.11
2023-03-06T01:53:51.657Z,95.90
2023-03-06T01:54:52.106Z,96.00
2023-03-06T01:55:52.064Z,95.90
2023-03-06T01:56:44.461Z,96.04
2023-03-06T01:57:44.486Z,96.42
2023-03-06T01:58:44.458Z,96.42
2023-03-06T01:59:44.430Z,96.21
2023-03-06T02:00:44.522Z,95.94
2023-03-06T02:01:44.448Z,95.52
2023-03-06T02:02:44.387Z,95.84
2023-03-06T02:03:44.380Z,96.04
2023-03-06T02:04:44.361Z,95.84
2023-03-06T02:05:44.396Z,96.25
2023-03-06T02:06:44.377Z,96.04
2023-03-06T02:07:44.334Z,95.84
2023-03-06T02:08:44.357Z,95.98
2023-03-06T02:09:44.325Z,95.92
2023-03-06T02:10:44.292Z,96.25
2023-03-06T02:11:44.444Z,96.09
2023-03-06T02:12:44.287Z,96.09
2023-03-06T02:13:44.290Z,95.88
2023-03-06T02:14:44.270Z,96.09
2023-03-06T02:15:44.343Z,95.88
2023-03-06T02:16:44.283Z,95.78
2023-03-06T02:17:44.248Z,95.92
2023-03-06T02:18:44.219Z,95.78
2023-03-06T02:19:44.232Z,95.78
2023-03-06T02:20:44.188Z,96.24
2023-03-06T02:21:44.185Z,96.03
2023-03-06T02:22:44.169Z,96.13
2023-03-06T02:23:44.160Z,96.03
2023-03-06T02:24:44.178Z,95.92
2023-03-06T02:25:44.142Z,95.88
2023-03-06T02:26:44.143Z,95.92
2023-03-06T02:27:44.115Z,95.92
2023-03-06T02:28:44.098Z,96.13
2023-03-06T02:29:44.109Z,95.92
2023-03-06T02:30:44.092Z,95.72
2023-03-06T02:31:44.090Z,95.72
2023-03-06T02:32:44.051Z,96.13
2023-03-06T02:33:44.048Z,95.76
2023-03-06T02:34:44.049Z,95.65
2023-03-06T02:35:44.053Z,95.44
2023-03-06T02:36:44.017Z,95.13
2023-03-06T02:37:44.003Z,95.06
2023-03-06T02:38:43.990Z,94.90
2023-03-06T02:39:44.010Z,94.90
2023-03-06T02:40:43.998Z,94.79
2023-03-06T02:41:43.956Z,94.90
2023-03-06T02:42:43.951Z,95.00
2023-03-06T02:43:43.936Z,95.32
2023-03-06T02:44:43.940Z,95.74
2023-03-06T02:45:43.915Z,95.89
2023-03-06T02:46:43.893Z,94.98
2023-03-06T02:47:43.898Z,95.26
2023-03-06T02:48:43.879Z,95.36
2023-03-06T02:49:43.883Z,95.26
2023-03-06T02:50:43.867Z,95.20
2023-03-06T02:51:43.852Z,95.20
2023-03-06T02:52:43.831Z,95.40
2023-03-06T02:53:43.823Z,94.88
2023-03-06T02:54:43.831Z,95.20
2023-03-06T02:55:43.814Z,95.20
2023-03-06T02:56:43.797Z,95.62
2023-03-06T02:57:43.770Z,94.98
2023-03-06T02:58:43.755Z,94.92
2023-03-06T02:59:43.772Z,95.03
2023-03-06T03:00:43.740Z,95.34
2023-03-06T03:01:43.764Z,95.55
2023-03-06T03:02:43.714Z,95.34
2023-03-06T03:03:43.723Z,95.87
2023-03-06T03:04:43.707Z,95.87
2023-03-06T03:05:43.678Z,95.91
2023-03-06T03:06:43.726Z,96.19
2023-03-06T03:07:43.658Z,95.87
2023-03-06T03:08:43.661Z,96.08
2023-03-06T03:09:43.645Z,96.12
2023-03-06T03:10:43.618Z,96.23
2023-03-06T03:11:43.661Z,96.12
2023-03-06T03:12:43.627Z,96.12
2023-03-06T03:13:43.684Z,95.91
2023-03-06T03:14:43.587Z,95.70
2023-03-06T03:15:43.599Z,95.18
2023-03-06T03:16:43.569Z,95.39
2023-03-06T03:17:43.608Z,95.28
2023-03-06T03:18:43.586Z,95.39
2023-03-06T03:19:43.527Z,95.28
2023-03-06T03:20:43.516Z,94.86
2023-03-06T03:21:43.528Z,95.32
2023-03-06T03:22:43.516Z,95.18
2023-03-06T03:23:43.493Z,95.01
2023-03-06T03:24:43.535Z,95.07
2023-03-06T03:25:43.483Z,95.22
2023-03-06T03:26:43.466Z,94.96
2023-03-06T03:27:43.441Z,95.07
2023-03-06T03:28:43.442Z,95.07
2023-03-06T03:29:43.430Z,94.80
2023-03-06T03:30:43.399Z,94.80
2023-03-06T03:31:43.413Z,95.07
2023-03-06T03:32:43.379Z,94.80
2023-03-06T03:33:43.378Z,95.53
2023-03-06T03:34:43.356Z,95.11
2023-03-06T03:35:43.422Z,95.32
2023-03-06T03:36:43.336Z,95.01
2023-03-06T03:37:43.329Z,95.53
2023-03-06T03:38:43.311Z,95.32
2023-03-06T03:39:43.310Z,95.64
2023-03-06T03:40:43.316Z,96.06
2023-03-06T03:41:43.340Z,96.27
2023-03-06T03:42:43.274Z,96.27
2023-03-06T03:43:43.263Z,96.27
2023-03-06T03:44:43.273Z,96.27
2023-03-06T03:45:43.258Z,96.69
2023-03-06T03:46:43.274Z,96.48
2023-03-06T03:47:43.232Z,96.48
2023-03-06T03:48:43.217Z,96.55
2023-03-06T03:49:43.196Z,96.44
2023-03-06T03:50:43.205Z,96.55
2023-03-06T03:51:43.178Z,97.60
2023-03-06T03:52:43.158Z,96.97
2023-03-06T03:53:43.182Z,96.71
2023-03-06T03:54:43.132Z,97.13
2023-03-06T03:55:43.133Z,96.71
2023-03-06T03:56:43.121Z,96.81
2023-03-06T03:57:43.174Z,96.71
2023-03-06T03:58:43.110Z,96.98
2023-03-06T03:59:43.107Z,97.24
2023-03-06T04:00:43.085Z,97.09
2023-03-06T04:01:43.122Z,97.34
2023-03-06T04:02:43.043Z,97.13
2023-03-06T04:03:43.061Z,97.09
2023-03-06T04:04:43.043Z,96.88
2023-03-06T04:05:43.025Z,97.30
2023-03-06T04:06:43.010Z,97.30
2023-03-06T04:07:42.988Z,96.77
2023-03-06T04:08:42.993Z,96.45
2023-03-06T04:09:42.973Z,97.19
2023-03-06T04:10:42.951Z,96.56
2023-03-06T04:11:42.967Z,97.09
2023-03-06T04:12:42.938Z,97.41
2023-03-06T04:13:42.944Z,96.45
2023-03-06T04:14:42.909Z,96.56
2023-03-06T04:15:42.899Z,96.88
2023-03-06T04:16:42.907Z,96.56
2023-03-06T04:17:42.902Z,96.14
2023-03-06T04:18:42.882Z,96.35
2023-03-06T04:19:42.852Z,96.45
2023-03-06T04:20:42.836Z,96.25
2023-03-06T04:21:42.841Z,96.25
2023-03-06T04:22:42.850Z,96.14
2023-03-06T04:23:42.823Z,96.45
2023-03-06T04:24:42.796Z,95.93
2023-03-06T04:25:42.816Z,95.83
2023-03-06T04:26:42.780Z,96.19
2023-03-06T04:27:42.765Z,96.03
2023-03-06T04:28:42.759Z,95.87
2023-03-06T04:29:42.776Z,95.55
2023-03-06T04:30:42.730Z,95.34
2023-03-06T04:31:42.824Z,95.03
2023-03-06T04:32:42.890Z,94.92
2023-03-06T04:33:42.700Z,95.03
2023-03-06T04:34:42.708Z,95.07
2023-03-06T04:35:42.844Z,94.96
2023-03-06T04:36:42.665Z,95.18
2023-03-06T04:37:42.660Z,95.01
2023-03-06T04:38:42.739Z,95.11
2023-03-06T04:39:42.635Z,95.01
2023-03-06T04:40:44.812Z,95.53
2023-03-06T04:41:42.646Z,95.64
2023-03-06T04:42:42.600Z,95.43
2023-03-06T04:43:42.594Z,95.11
2023-03-06T04:44:42.581Z,95.43
2023-03-06T04:45:42.622Z,95.89
2023-03-06T04:46:42.580Z,96.31
2023-03-06T04:47:42.561Z,96.00
2023-03-06T04:48:42.548Z,95.53
2023-03-06T04:49:42.533Z,96.37
2023-03-06T04:50:42.507Z,96.06
2023-03-06T04:51:42.503Z,96.27
2023-03-06T04:52:42.507Z,96.80
2023-03-06T04:53:42.494Z,96.69
2023-03-06T04:54:42.465Z,96.37
2023-03-06T04:55:42.462Z,97.17
2023-03-06T04:56:42.437Z,96.75
2023-03-06T04:57:42.455Z,96.97
2023-03-06T04:58:42.432Z,97.49
2023-03-06T04:59:42.422Z,97.39
2023-03-06T05:00:42.467Z,97.34
2023-03-06T05:01:42.399Z,97.34
2023-03-06T05:02:42.392Z,97.03
2023-03-06T05:03:42.388Z,97.03
2023-03-06T05:04:42.367Z,97.45
2023-03-06T05:05:42.345Z,97.45
2023-03-06T05:06:42.326Z,97.13
2023-03-06T05:07:42.321Z,97.13
2023-03-06T05:08:42.337Z,97.24
2023-03-06T05:09:42.299Z,97.24
2023-03-06T05:10:42.296Z,97.45
2023-03-06T05:11:42.285Z,97.07
2023-03-06T05:12:42.287Z,97.24
2023-03-06T05:13:42.259Z,97.45
2023-03-06T05:14:42.266Z,96.71
2023-03-06T05:15:42.264Z,96.86
2023-03-06T05:16:42.264Z,97.17
2023-03-06T05:17:42.222Z,97.07
2023-03-06T05:18:42.202Z,97.07
2023-03-06T05:19:42.202Z,96.97
2023-03-06T05:20:42.184Z,97.07
2023-03-06T05:21:42.205Z,96.81
2023-03-06T05:22:42.184Z,96.75
2023-03-06T05:23:42.144Z,97.17
2023-03-06T05:24:42.122Z,97.34
2023-03-06T05:25:42.140Z,96.71
2023-03-06T05:26:42.101Z,96.71
2023-03-06T05:27:42.094Z,97.13
2023-03-06T05:28:42.091Z,97.45
2023-03-06T05:29:42.070Z,97.03
2023-03-06T05:30:42.087Z,97.24
2023-03-06T05:31:42.089Z,97.24
2023-03-06T05:32:42.082Z,96.65
2023-03-06T05:33:42.051Z,96.75
2023-03-06T05:34:42.025Z,96.97
2023-03-06T05:35:42.060Z,97.39
2023-03-06T05:36:42.009Z,96.71
2023-03-06T05:37:41.986Z,96.97
2023-03-06T05:38:41.971Z,96.81
2023-03-06T05:39:41.966Z,97.07
2023-03-06T05:40:41.964Z,96.86
2023-03-06T05:41:41.963Z,97.13
2023-03-06T05:42:41.941Z,96.75
2023-03-06T05:43:41.939Z,97.07
2023-03-06T05:44:41.904Z,96.75
2023-03-06T05:45:41.958Z,96.86
2023-03-06T05:46:41.929Z,96.97
2023-03-06T05:47:41.877Z,96.86
2023-03-06T05:48:41.866Z,97.03
2023-03-06T05:49:41.852Z,96.71
2023-03-06T05:50:41.838Z,97.03
2023-03-06T05:51:41.856Z,96.81
2023-03-06T05:52:41.848Z,96.71
2023-03-06T05:53:41.817Z,97.03
2023-03-06T05:54:41.800Z,96.81
2023-03-06T05:55:41.789Z,96.92
2023-03-06T05:56:42.893Z,97.13
2023-03-06T05:57:41.760Z,97.13
2023-03-06T05:58:41.763Z,97.24
2023-03-06T05:59:43.043Z,97.13
2023-03-06T06:00:41.727Z,97.34
2023-03-06T06:01:41.712Z,97.03
2023-03-06T06:02:41.791Z,97.24
2023-03-06T06:03:41.765Z,97.24
2023-03-06T06:04:41.714Z,97.13
2023-03-06T06:05:41.674Z,97.34
2023-03-06T06:06:41.935Z,96.71
2023-03-06T06:07:41.711Z,97.03
2023-03-06T06:08:41.671Z,97.03
2023-03-06T06:09:41.644Z,96.92
2023-03-06T06:10:41.733Z,96.61
2023-03-06T06:11:41.701Z,96.92
2023-03-06T06:12:41.674Z,96.92
2023-03-06T06:13:41.701Z,97.03
2023-03-06T06:14:41.614Z,96.81
2023-03-06T06:15:41.607Z,96.77
2023-03-06T06:16:41.591Z,97.19
2023-03-06T06:17:41.538Z,97.24
2023-03-06T06:18:41.658Z,96.98
2023-03-06T06:19:41.539Z,96.88
2023-03-06T06:20:41.504Z,97.30
2023-03-06T06:21:41.493Z,96.88
2023-03-06T06:22:41.492Z,97.09
2023-03-06T06:23:41.467Z,96.98
2023-03-06T06:24:41.501Z,97.41
2023-03-06T06:25:41.441Z,96.88
2023-03-06T06:26:41.440Z,97.30
2023-03-06T06:27:41.429Z,96.83
2023-03-06T06:28:41.430Z,96.94
2023-03-06T06:29:41.424Z,96.94
2023-03-06T06:30:41.403Z,97.05
2023-03-06T06:31:41.388Z,97.41
2023-03-06T06:32:42.005Z,97.25
2023-03-06T06:33:41.459Z,96.94
2023-03-06T06:34:41.365Z,96.73
2023-03-06T06:35:41.372Z,96.83
2023-03-06T06:36:41.357Z,96.62
2023-03-06T06:37:41.328Z,96.89
2023-03-06T06:38:41.303Z,96.89
2023-03-06T06:39:41.308Z,96.79
2023-03-06T06:40:41.303Z,96.79
2023-03-06T06:41:59.495Z,96.89
2023-03-06T06:42:42.282Z,96.69
2023-03-06T06:43:41.240Z,96.79
2023-03-06T06:44:41.259Z,96.85
2023-03-06T06:45:41.220Z,96.85
2023-03-06T06:47:42.207Z,97.12
2023-03-06T06:48:41.211Z,97.33
2023-03-06T06:49:41.194Z,97.23
2023-03-06T06:50:41.186Z,97.60
2023-03-06T06:51:41.190Z,97.18
2023-03-06T06:52:41.191Z,97.50
2023-03-06T06:53:41.131Z,97.18
2023-03-06T06:54:41.144Z,97.18
2023-03-06T06:55:41.109Z,97.03
2023-03-06T06:56:41.133Z,97.24
2023-03-06T06:57:41.129Z,97.14
2023-03-06T06:58:41.092Z,97.03
2023-03-06T06:59:41.131Z,96.89
2023-03-06T07:00:41.087Z,96.57
2023-03-06T07:01:41.136Z,96.57
2023-03-06T07:02:41.093Z,96.36
2023-03-06T07:03:41.104Z,96.67
2023-03-06T07:04:52.439Z,96.99
2023-03-06T07:05:42.007Z,96.78
2023-03-06T07:06:41.042Z,96.67
2023-03-06T07:07:40.998Z,97.16
2023-03-06T07:08:40.974Z,96.36
2023-03-06T07:09:40.965Z,96.11
2023-03-06T07:10:40.954Z,96.21
2023-03-06T07:11:40.998Z,96.00
2023-03-06T07:12:40.948Z,96.48
2023-03-06T07:13:40.963Z,95.96
2023-03-06T07:14:40.967Z,95.96
2023-03-06T07:15:41.003Z,95.96
2023-03-06T07:16:40.899Z,95.75
2023-03-06T07:17:40.889Z,95.86
2023-03-06T07:18:40.872Z,95.96
2023-03-06T07:19:40.931Z,95.75
2023-03-06T07:20:40.850Z,95.75
2023-03-06T07:21:40.852Z,95.39
2023-03-06T07:22:50.265Z,95.39
2023-03-06T07:23:41.827Z,95.29
2023-03-06T07:24:40.834Z,95.29
2023-03-06T07:25:40.778Z,95.50
2023-03-06T07:26:40.770Z,95.07
2023-03-06T07:27:40.759Z,95.25
2023-03-06T07:28:51.916Z,94.62
2023-03-06T07:29:41.808Z,94.93
2023-03-06T07:30:40.740Z,95.03
2023-03-06T07:31:40.732Z,94.72
2023-03-06T07:32:40.847Z,94.72
2023-03-06T07:33:40.717Z,94.72
2023-03-06T07:34:40.702Z,94.30
2023-03-06T07:35:40.738Z,94.40
2023-03-06T07:36:40.675Z,94.40
2023-03-06T07:37:40.655Z,93.88
2023-03-06T07:38:40.653Z,94.40
2023-03-06T07:39:40.618Z,93.88
2023-03-06T07:40:40.645Z,94.51
2023-03-06T07:41:40.601Z,94.93
2023-03-06T07:42:40.601Z,94.40
2023-03-06T07:43:40.581Z,94.40
2023-03-06T07:44:40.597Z,94.36
2023-03-06T07:45:40.560Z,93.67
2023-03-06T07:46:40.650Z,93.95
2023-03-06T07:47:40.530Z,93.63
2023-03-06T07:48:40.546Z,93.95
2023-03-06T07:49:40.513Z,93.95
2023-03-06T07:50:40.529Z,94.05
2023-03-06T07:51:40.481Z,93.95
2023-03-06T07:52:40.480Z,93.95
2023-03-06T07:53:40.473Z,93.32
2023-03-06T07:54:40.508Z,93.32
2023-03-06T07:55:40.455Z,93.11
2023-03-06T07:56:40.464Z,93.52
2023-03-06T07:57:40.431Z,93.32
2023-03-06T07:58:40.413Z,93.01
2023-03-06T07:59:40.430Z,93.11
2023-03-06T08:00:40.416Z,93.01
2023-03-06T08:01:40.404Z,93.01
2023-03-06T08:02:40.406Z,92.90
2023-03-06T08:03:40.353Z,93.07
2023-03-06T08:04:40.395Z,93.21
2023-03-06T08:05:40.326Z,93.01
2023-03-06T08:06:40.339Z,93.32
2023-03-06T08:07:40.303Z,93.27
2023-03-06T08:08:40.368Z,93.38
2023-03-06T08:09:40.295Z,92.96
2023-03-06T08:10:40.293Z,92.82
2023-03-06T08:11:40.276Z,92.92
2023-03-06T08:12:40.286Z,93.02
2023-03-06T08:13:40.236Z,92.29
2023-03-06T08:14:40.231Z,92.50
2023-03-06T08:15:40.221Z,91.94
2023-03-06T08:16:40.309Z,92.56
2023-03-06T08:17:40.215Z,92.46
2023-03-06T08:18:40.200Z,92.10
2023-03-06T08:19:40.169Z,91.89
2023-03-06T08:20:40.203Z,92.00
2023-03-06T08:21:40.142Z,91.33
2023-03-06T08:22:40.151Z,91.69
2023-03-06T08:23:40.122Z,91.12
2023-03-06T08:24:40.154Z,91.12
2023-03-06T08:25:40.141Z,91.22
2023-03-06T08:26:40.095Z,90.70
2023-03-06T08:27:40.106Z,90.81
2023-03-06T08:28:40.126Z,90.97
2023-03-06T08:29:40.050Z,90.77
2023-03-06T08:30:40.084Z,90.56
2023-03-06T08:31:40.084Z,90.77
2023-03-06T08:32:40.154Z,90.77
2023-03-06T08:33:40.008Z,90.87
2023-03-06T08:34:40.066Z,90.41
2023-03-06T08:35:40.045Z,90.00
2023-03-06T08:36:40.005Z,90.93
2023-03-06T08:37:40.114Z,90.87
2023-03-06T08:38:39.955Z,90.62
2023-03-06T08:39:39.955Z,90.62
2023-03-06T08:40:39.955Z,90.72
2023-03-06T08:41:39.938Z,90.97
2023-03-06T08:42:39.927Z,90.62
2023-03-06T08:43:39.893Z,90.72
2023-03-06T08:44:39.906Z,90.62
2023-03-06T08:45:39.883Z,90.56
2023-03-06T08:46:39.872Z,90.72
2023-03-06T08:47:39.846Z,90.62
2023-03-06T08:48:39.905Z,90.52
2023-03-06T08:49:39.858Z,90.52
2023-03-06T08:50:39.822Z,90.52
2023-03-06T08:51:39.833Z,90.93
2023-03-06T08:52:39.793Z,90.68
2023-03-06T08:53:43.482Z,90.93
2023-03-06T08:54:39.785Z,90.47
2023-03-06T08:55:39.752Z,90.52
2023-03-06T08:56:39.770Z,90.68
2023-03-06T08:57:39.728Z,89.95
2023-03-06T08:58:39.747Z,90.68
2023-03-06T08:59:39.712Z,91.10
2023-03-06T09:00:39.795Z,90.58
2023-03-06T09:01:39.799Z,90.79
2023-03-06T09:02:39.713Z,90.58
2023-03-06T09:03:39.676Z,90.68
2023-03-06T09:04:39.797Z,90.89
2023-03-06T09:05:39.637Z,90.64
2023-03-06T09:06:39.650Z,90.44
2023-03-06T09:07:39.625Z,90.54
2023-03-06T09:08:39.634Z,90.22
2023-03-06T09:09:39.614Z,90.12
2023-03-06T09:10:39.617Z,89.91
2023-03-06T09:11:39.606Z,89.91
2023-03-06T09:12:49.868Z,90.64
2023-03-06T09:13:40.546Z,89.87
2023-03-06T09:14:39.582Z,90.08
2023-03-06T09:15:39.525Z,90.60
2023-03-06T09:16:39.581Z,90.08
2023-03-06T09:17:39.552Z,90.19
2023-03-06T09:18:39.514Z,89.56
2023-03-06T09:19:39.498Z,89.76
2023-03-06T09:20:39.610Z,89.76
2023-03-06T09:21:39.487Z,90.50
2023-03-06T09:22:39.461Z,90.45
2023-03-06T09:23:39.534Z,89.56
2023-03-06T09:24:39.434Z,90.04
2023-03-06T09:25:39.486Z,89.76
2023-03-06T09:26:46.316Z,89.76
2023-03-06T09:27:40.391Z,90.87
2023-03-06T09:28:39.403Z,90.77
2023-03-06T09:29:39.405Z,90.83
2023-03-06T09:30:39.395Z,90.52
2023-03-06T09:31:39.367Z,90.72
2023-03-06T09:32:39.379Z,90.62
2023-03-06T09:33:39.329Z,89.69
2023-03-06T09:34:39.332Z,89.69
2023-03-06T09:35:39.327Z,89.69
2023-03-06T09:36:55.037Z,89.54
2023-03-06T09:37:40.328Z,89.69
2023-03-06T09:38:39.295Z,89.23
2023-03-06T09:39:39.256Z,89.43
2023-03-06T09:40:39.251Z,89.27
2023-03-06T09:41:39.238Z,89.12
2023-03-06T09:42:39.250Z,88.81
2023-03-06T09:43:39.217Z,89.02
2023-03-06T09:44:39.217Z,89.12
2023-03-06T09:45:39.260Z,89.33
2023-03-06T09:46:39.182Z,88.87
2023-03-06T09:47:39.159Z,88.92
2023-03-06T09:48:39.192Z,88.60
2023-03-06T09:49:39.148Z,88.46
2023-03-06T09:50:39.149Z,88.87
2023-03-06T09:51:39.119Z,88.87
2023-03-06T09:52:39.236Z,88.81
2023-03-06T09:53:39.423Z,88.81
2023-03-06T09:54:39.093Z,88.77
2023-03-06T09:55:39.095Z,88.81
2023-03-06T09:56:39.092Z,88.92
2023-03-06T09:57:39.066Z,88.81
2023-03-06T09:58:39.049Z,88.29
2023-03-06T09:59:39.026Z,88.04
2023-03-06T10:00:39.029Z,88.15
2023-03-06T10:01:39.031Z,88.40
2023-03-06T10:02:39.167Z,88.15
2023-03-06T10:03:38.979Z,88.56
2023-03-06T10:04:39.056Z,88.46
2023-03-06T10:05:38.981Z,88.40
2023-03-06T10:06:38.976Z,88.50
2023-03-06T10:07:38.939Z,88.50
2023-03-06T10:08:38.956Z,88.40
2023-03-06T10:09:38.938Z,88.81
2023-03-06T10:10:38.912Z,88.92
2023-03-06T10:11:38.926Z,88.60
2023-03-06T10:12:38.875Z,88.71
2023-03-06T10:13:38.876Z,88.46
2023-03-06T10:14:38.869Z,88.56
2023-03-06T10:15:38.944Z,88.67
2023-03-06T10:16:38.865Z,87.73
2023-03-06T10:17:41.478Z,87.01
2023-03-06T10:18:38.813Z,87.11
2023-03-06T10:19:38.802Z,87.32
2023-03-06T10:20:38.800Z,87.32
2023-03-06T10:21:38.837Z,86.69
2023-03-06T10:22:38.787Z,86.38
2023-03-06T10:23:38.774Z,86.73
2023-03-06T10:24:38.765Z,86.80
2023-03-06T10:25:38.763Z,87.01
2023-03-06T10:26:38.768Z,87.11
2023-03-06T10:27:38.721Z,86.59
2023-03-06T10:28:38.730Z,86.83
2023-03-06T10:29:39.289Z,86.73
2023-03-06T10:30:38.699Z,87.15
2023-03-06T10:31:38.694Z,87.25
2023-03-06T10:32:48.351Z,86.32
2023-03-06T10:33:39.645Z,86.63
2023-03-06T10:34:38.661Z,86.94
2023-03-06T10:35:38.704Z,87.04
2023-03-06T10:36:38.612Z,86.52
2023-03-06T10:37:38.605Z,86.94
2023-03-06T10:38:38.614Z,87.04
2023-03-06T10:39:38.607Z,87.04
2023-03-06T10:40:38.596Z,86.90
2023-03-06T10:41:38.575Z,86.90
2023-03-06T10:42:38.565Z,86.76
2023-03-06T10:43:38.573Z,86.76
2023-03-06T10:44:38.529Z,86.65
2023-03-06T10:45:49.028Z,86.51
2023-03-06T10:46:39.550Z,86.65
2023-03-06T10:47:38.530Z,85.93
2023-03-06T10:48:40.806Z,85.82
2023-03-06T10:49:38.472Z,85.88
2023-03-06T10:50:38.486Z,85.68
2023-03-06T10:51:38.470Z,84.95
2023-03-06T10:52:38.448Z,85.36
2023-03-06T10:53:38.450Z,85.47
2023-03-06T10:54:38.420Z,85.16
2023-03-06T10:55:38.448Z,85.16
2023-03-06T10:56:38.406Z,85.16
2023-03-06T10:57:38.418Z,83.81
2023-03-06T10:58:38.385Z,84.22
2023-03-06T10:59:38.357Z,84.01
2023-03-06T11:00:38.363Z,84.74
2023-03-06T11:01:38.398Z,84.33
2023-03-06T11:02:38.330Z,83.81
2023-03-06T11:03:38.357Z,84.05
2023-03-06T11:04:38.418Z,84.22
2023-03-06T11:05:38.293Z,84.53
2023-03-06T11:06:38.300Z,84.53
2023-03-06T11:07:38.271Z,84.01
2023-03-06T11:08:38.253Z,84.68
2023-03-06T11:09:38.268Z,83.81
2023-03-06T11:10:38.253Z,84.43
2023-03-06T11:11:38.266Z,84.53
2023-03-06T11:12:38.244Z,83.91
2023-03-06T11:13:38.229Z,83.74
2023-03-06T11:14:38.209Z,84.16
2023-03-06T11:15:38.189Z,84.64
2023-03-06T11:16:38.195Z,84.84
2023-03-06T11:17:38.190Z,85.51
2023-03-06T11:18:38.142Z,85.47
2023-03-06T11:19:38.135Z,85.10
2023-03-06T11:20:50.637Z,85.61
2023-03-06T11:21:39.137Z,85.82
2023-03-06T11:22:38.148Z,85.30
2023-03-06T11:23:38.096Z,85.61
2023-03-06T11:24:38.082Z,85.72
2023-03-06T11:25:38.067Z,85.72
2023-03-06T11:26:38.047Z,85.20
2023-03-06T11:27:38.043Z,85.61
2023-03-06T11:28:38.080Z,85.78
2023-03-06T11:29:38.926Z,85.47
2023-03-06T11:30:38.000Z,85.20
2023-03-06T11:31:38.136Z,85.16
2023-03-06T11:32:38.004Z,84.95
2023-03-06T11:33:37.973Z,85.05
2023-03-06T11:34:37.967Z,85.36
2023-03-06T11:35:38.020Z,85.51
2023-03-06T11:36:37.949Z,85.99
2023-03-06T11:37:37.959Z,86.76
2023-03-06T11:38:37.910Z,86.34
2023-03-06T11:39:37.911Z,86.24
2023-03-06T11:40:37.892Z,86.44
2023-03-06T11:41:37.895Z,87.07
2023-03-06T11:42:37.858Z,86.86
2023-03-06T11:43:37.854Z,86.69
2023-03-06T11:44:37.879Z,86.96
2023-03-06T11:45:37.833Z,86.96
2023-03-06T11:46:37.971Z,87.17
2023-03-06T11:47:37.818Z,87.27
2023-03-06T11:48:37.804Z,87.27
2023-03-06T11:49:37.813Z,87.59
2023-03-06T11:50:37.793Z,87.69
2023-03-06T11:51:37.767Z,87.69
2023-03-06T11:52:37.763Z,86.96
2023-03-06T11:53:37.764Z,87.79
2023-03-06T11:54:37.751Z,87.38
2023-03-06T11:55:46.594Z,87.59
2023-03-06T11:56:45.370Z,87.59
2023-03-06T11:57:45.937Z,87.79
2023-03-06T11:58:37.694Z,88.42
2023-03-06T11:59:37.700Z,88.10
2023-03-06T12:00:37.678Z,87.76
2023-03-06T12:01:37.673Z,87.27
2023-03-06T12:02:37.638Z,86.65
2023-03-06T12:03:37.640Z,86.93
2023-03-06T12:04:37.629Z,85.88
2023-03-06T12:05:45.329Z,86.51
2023-03-06T12:06:46.699Z,86.19
2023-03-06T12:07:45.297Z,85.72
2023-03-06T12:08:37.606Z,86.76
2023-03-06T12:09:37.569Z,86.65
2023-03-06T12:10:37.680Z,86.61
2023-03-06T12:11:37.542Z,85.47
2023-03-06T12:12:37.530Z,85.26
2023-03-06T12:13:37.537Z,85.26
2023-03-06T12:14:37.520Z,85.26
2023-03-06T12:15:37.503Z,85.05
2023-03-06T12:16:37.554Z,85.02
2023-03-06T12:17:37.500Z,84.08
2023-03-06T12:18:37.467Z,83.67
2023-03-06T12:19:37.448Z,83.77
2023-03-06T12:20:37.437Z,83.67
2023-03-06T12:21:37.448Z,82.73
2023-03-06T12:22:37.430Z,83.56
2023-03-06T12:23:37.423Z,83.98
2023-03-06T12:24:37.438Z,84.39
2023-03-06T12:25:37.386Z,84.29
2023-03-06T12:26:37.366Z,84.19
2023-03-06T12:27:37.380Z,83.46
2023-03-06T12:28:37.344Z,82.84
2023-03-06T12:29:37.341Z,82.53
2023-03-06T12:30:37.348Z,82.67
2023-03-06T12:31:37.344Z,82.87
2023-03-06T12:32:37.368Z,82.56
2023-03-06T12:33:37.316Z,82.46
2023-03-06T12:34:37.271Z,82.15
2023-03-06T12:35:37.298Z,81.94
2023-03-06T12:36:37.263Z,82.46
2023-03-06T12:37:37.240Z,83.29
2023-03-06T12:38:37.248Z,83.39
2023-03-06T12:39:37.227Z,83.22
2023-03-06T12:40:37.204Z,83.60
2023-03-06T12:41:37.196Z,84.37
2023-03-06T12:42:37.189Z,84.43
2023-03-06T12:43:39.590Z,83.50
2023-03-06T12:44:37.160Z,83.50
2023-03-06T12:45:37.228Z,83.33
2023-03-06T12:46:37.398Z,83.47
2023-03-06T12:47:37.257Z,83.89
2023-03-06T12:48:37.190Z,84.82
2023-03-06T12:49:37.123Z,85.24
2023-03-06T12:50:37.115Z,85.75
2023-03-06T12:51:37.082Z,85.13
2023-03-06T12:52:37.068Z,84.72
2023-03-06T12:53:37.079Z,83.89